This is the latest recevied weather packets stored in our database for station/object SP6RGZ-1. If no packets are shown the sender has not sent any weather packets the latest 10 day(s).
| Time | Temp. | Humidity | Pressure | Rain* | Wind** | Luminosity | Snow |
|---|---|---|---|---|---|---|---|
| 1788092102 | 30° C | 47% | 994.4 hPa | - | - | - | - |
| 1788091202 | 30° C | 46% | 994.5 hPa | - | - | - | - |
| 1788090302 | 29.44° C | 47% | 994.6 hPa | - | - | - | - |
| 1788089402 | 29.44° C | 46% | 994.8 hPa | - | - | - | - |
| 1788088502 | 29.44° C | 45% | 994.8 hPa | - | - | - | - |
| 1788087602 | 29.44° C | 45% | 994.8 hPa | - | - | - | - |
| 1788086702 | 29.44° C | 45% | 994.8 hPa | - | - | - | - |
| 1788085801 | 29.44° C | 44% | 994.9 hPa | - | - | - | - |
| 1788084902 | 29.44° C | 46% | 994.9 hPa | - | - | - | - |
| 1788084002 | 29.44° C | 48% | 995 hPa | - | - | - | - |
| 1788083102 | 28.89° C | 48% | 995.2 hPa | - | - | - | - |
| 1788082202 | 28.89° C | 49% | 995.2 hPa | - | - | - | - |
| 1788081302 | 28.89° C | 49% | 995.4 hPa | - | - | - | - |
| 1788080402 | 28.89° C | 50% | 995.4 hPa | - | - | - | - |
| 1788079501 | 27.22° C | 54% | 995.5 hPa | - | - | - | - |
| 1788078602 | 27.22° C | 55% | 995.6 hPa | - | - | - | - |
| 1788077702 | 27.22° C | 56% | 995.7 hPa | - | - | - | - |
| 1788076802 | 25.56° C | 61% | 995.8 hPa | - | - | - | - |
| 1788075902 | 24.44° C | 62% | 995.7 hPa | - | - | - | - |
| 1788075002 | 23.89° C | 64% | 995.8 hPa | - | - | - | - |
| 1788074102 | 23.89° C | 64% | 995.8 hPa | - | - | - | - |
| 1788073202 | 23.89° C | 65% | 995.8 hPa | - | - | - | - |
| 1788072302 | 22.78° C | 68% | 995.7 hPa | - | - | - | - |
| 1788071402 | 21.67° C | 70% | 995.7 hPa | - | - | - | - |
| 1788070502 | 20.56° C | 74% | 995.7 hPa | - | - | - | - |
* Rain since midnight (hover to see other rain measurements)
** Current wind speed in m/s (hover to see current wind gust speed)